YPTN/KTR METAR and TAF weather

Enter ICAO airport designator
Station Type Date Time Source
YPTN METAR 2019/12/07 15:00 UTC NOAA

YPTN 071500Z AUTO 36009KT 9999 // NCD 33/20 Q1009


Station Type Date Time Source
YPTN Decoded METAR 2019/12/07 15:00 UTC NOAA

Tindal / Katherine, Australia (YPTN) 14-26S 132-16E 109M
Dec 07, 2019 - 10:00 AM EST / 2019.12.07 1500 UTC
Wind: from the N (360 degrees) at 10 MPH (9 KT):0
Visibility: greater than 7 mile(s):0
Temperature: 91 F (33 C)
Heat index: 94.6 F (34.8 C):1
Dew Point: 68 F (20 C)
Relative Humidity: 46%
Pressure (altimeter): 29.80 in. Hg (1009 hPa)
ob: YPTN 071500Z AUTO 36009KT 9999 // NCD 33/20 Q1009
cycle: 15

Station Type Date Time Source
YPTN TAF 2019/12/07 12:33 UTC NOAA

TAF YPTN 071114Z 0712/0812 06005KT CAVOK
FM071400 34010KT CAVOK

Example: see airport list